createdAt,value
2019-05-02T00:01:02.138Z,99395.92
2019-05-02T00:06:07.406Z,99386.20
2019-05-02T00:11:11.007Z,99381.36
2019-05-02T00:16:15.454Z,99378.36
2019-05-02T00:21:19.216Z,99377.45
2019-05-02T00:26:24.545Z,99368.22
2019-05-02T00:31:28.097Z,99361.59
2019-05-02T00:36:31.664Z,99366.41
2019-05-02T00:41:38.379Z,99368.12
2019-05-02T00:46:40.528Z,99365.03
2019-05-02T00:51:44.135Z,99356.58
2019-05-02T00:56:47.688Z,99359.71
2019-05-02T01:01:52.823Z,99355.27
2019-05-02T01:06:56.530Z,99345.19
2019-05-02T01:12:03.152Z,99343.51
2019-05-02T01:17:05.515Z,99339.47
2019-05-02T01:22:10.575Z,99338.67
2019-05-02T01:27:18.820Z,99334.70
2019-05-02T01:32:29.610Z,99342.92
2019-05-02T01:37:31.035Z,99339.81
2019-05-02T01:42:39.915Z,99329.69
2019-05-02T01:47:39.953Z,99328.81
2019-05-02T01:52:43.520Z,99330.91
2019-05-02T01:57:47.320Z,99334.89
2019-05-02T02:02:50.883Z,99334.79
2019-05-02T02:07:55.629Z,99331.21
2019-05-02T02:13:04.932Z,99323.80
2019-05-02T02:18:05.355Z,99318.98
2019-05-02T02:23:14.142Z,99323.16
2019-05-02T02:28:15.827Z,99319.22
2019-05-02T02:33:19.621Z,99313.34
2019-05-02T02:38:26.981Z,99313.34
2019-05-02T02:43:34.325Z,99302.00
2019-05-02T02:48:40.784Z,99301.24
2019-05-02T02:53:39.732Z,99308.10
2019-05-02T02:58:46.249Z,99303.23
2019-05-02T03:03:48.647Z,99308.91
2019-05-02T03:08:52.194Z,99307.16
2019-05-02T03:19:05.376Z,99306.30
2019-05-02T03:24:09.016Z,99310.70
2019-05-02T03:29:12.610Z,99303.67
2019-05-02T03:34:16.235Z,99308.09
2019-05-02T03:39:19.783Z,99305.42
2019-05-02T03:44:25.986Z,99303.78
2019-05-02T03:49:28.987Z,99288.63
2019-05-02T03:54:32.552Z,99293.16
2019-05-02T03:59:39.249Z,99289.66
2019-05-02T04:04:41.429Z,99282.02
2019-05-02T04:09:45.004Z,99285.64
2019-05-02T04:14:55.152Z,99281.31
2019-05-02T04:19:53.924Z,99291.53
2019-05-02T04:24:57.598Z,99289.88
2019-05-02T04:30:09.878Z,99289.54
2019-05-02T04:35:06.483Z,99285.33
2019-05-02T04:40:12.361Z,99284.53
2019-05-02T04:45:26.480Z,99280.59
2019-05-02T04:50:25.197Z,99277.98
2019-05-02T04:55:30.139Z,99285.42
2019-05-02T05:00:31.294Z,99268.77
2019-05-02T05:05:34.847Z,99278.40
2019-05-02T05:10:43.686Z,99277.94
2019-05-02T05:15:48.845Z,99274.77
2019-05-02T05:20:53.068Z,99278.66
2019-05-02T05:26:03.374Z,99284.39
2019-05-02T05:31:01.252Z,99259.60
2019-05-02T05:36:08.154Z,99273.34
2019-05-02T05:41:13.943Z,99264.17
2019-05-02T05:46:17.867Z,99246.67
2019-05-02T05:51:21.628Z,99251.38
2019-05-02T05:56:25.213Z,99250.41
2019-05-02T06:01:33.946Z,99255.72
2019-05-02T06:06:34.207Z,99241.42
2019-05-02T06:11:37.791Z,99237.08
2019-05-02T06:16:41.419Z,99229.45
2019-05-02T06:21:46.604Z,99243.75
2019-05-02T06:26:51.809Z,99231.64
2019-05-02T06:31:57.145Z,99226.77
2019-05-02T06:37:01.430Z,99212.53
2019-05-02T06:42:05.161Z,99226.47
2019-05-02T06:47:08.887Z,99204.28
2019-05-02T06:52:12.493Z,99220.06
2019-05-02T06:57:19.040Z,99214.59
2019-05-02T07:02:21.537Z,99216.36
2019-05-02T07:07:31.283Z,99213.95
2019-05-02T07:12:30.602Z,99207.61
2019-05-02T07:17:44.558Z,99216.48
2019-05-02T07:22:48.174Z,99218.54
2019-05-02T07:27:51.820Z,99213.02
2019-05-02T07:32:56.331Z,99196.13
2019-05-02T07:38:00.754Z,99193.64
2019-05-02T07:43:04.926Z,99201.72
2019-05-02T07:48:12.685Z,99178.41
2019-05-02T07:53:14.287Z,99174.81
2019-05-02T07:58:18.085Z,99190.44
2019-05-02T08:03:21.662Z,99179.21
2019-05-02T08:08:29.770Z,99171.81
2019-05-02T08:13:31.888Z,99147.14
2019-05-02T08:18:35.441Z,99164.49
2019-05-02T08:23:39.022Z,99168.67
2019-05-02T08:28:51.857Z,99174.73
2019-05-02T08:33:55.455Z,99180.58
2019-05-02T08:38:59.028Z,99163.42
2019-05-02T08:44:02.643Z,99157.83
2019-05-02T08:49:06.200Z,99165.39
2019-05-02T08:54:09.787Z,99165.41
2019-05-02T08:59:13.398Z,99162.90
2019-05-02T09:04:16.955Z,99173.20
2019-05-02T09:09:22.796Z,99167.45
2019-05-02T09:14:25.831Z,99164.20
2019-05-02T09:19:34.070Z,99171.32
2019-05-02T09:24:34.716Z,99174.34
2019-05-02T09:29:44.484Z,99170.06
2019-05-02T09:34:43.994Z,99166.20
2019-05-02T09:39:47.589Z,99169.11
2019-05-02T09:44:55.405Z,99158.23
2019-05-02T09:50:06.818Z,99178.16
2019-05-02T09:55:12.171Z,99149.88
2019-05-02T10:00:26.754Z,99136.63
2019-05-02T10:05:28.607Z,99156.66
2019-05-02T10:10:32.534Z,99131.91
2019-05-02T10:15:36.079Z,99146.61
2019-05-02T10:20:41.747Z,99141.31
2019-05-02T10:25:46.890Z,99134.44
2019-05-02T10:30:56.439Z,99135.66
2019-05-02T10:35:57.403Z,99140.43
2019-05-02T10:41:02.682Z,99138.91
2019-05-02T10:46:07.887Z,99135.92
2019-05-02T10:51:25.940Z,99138.98
2019-05-02T10:56:27.652Z,99130.20
2019-05-02T11:01:32.808Z,99113.45
2019-05-02T11:06:37.103Z,99139.23
2019-05-02T11:11:42.500Z,99131.43
2019-05-02T11:16:47.817Z,99123.61
2019-05-02T11:21:56.409Z,99129.13
2019-05-02T11:26:56.926Z,99134.45
2019-05-02T11:32:02.732Z,99130.41
2019-05-02T11:37:06.555Z,99132.19
2019-05-02T11:42:10.148Z,99131.73
2019-05-02T11:47:17.250Z,99128.86
2019-05-02T11:52:19.047Z,99112.03
2019-05-02T11:57:28.381Z,99104.64
2019-05-02T12:02:35.283Z,99115.24
2019-05-02T12:07:38.960Z,99110.06
2019-05-02T12:12:43.029Z,99116.91
2019-05-02T12:17:46.698Z,99105.45
2019-05-02T12:22:50.325Z,99095.55
2019-05-02T12:27:53.895Z,99096.48
2019-05-02T12:32:57.540Z,99112.42
2019-05-02T12:38:02.714Z,99104.41
2019-05-02T12:43:06.802Z,99118.95
2019-05-02T12:48:12.719Z,99115.23
2019-05-02T12:53:15.732Z,99125.97
2019-05-02T12:58:19.532Z,99109.77
2019-05-02T13:03:43.646Z,99097.79
2019-05-02T13:08:52.262Z,99091.55
2019-05-02T13:13:55.667Z,99105.02
2019-05-02T13:19:03.110Z,99082.83
2019-05-02T13:24:13.277Z,99081.67
2019-05-02T13:29:15.252Z,99082.47
2019-05-02T13:34:22.087Z,99080.36
2019-05-02T13:39:33.686Z,99060.56
2019-05-02T13:44:38.878Z,99091.24
2019-05-02T13:49:53.624Z,99086.23
2019-05-02T13:54:49.728Z,99084.41
2019-05-02T13:59:53.375Z,99077.71
2019-05-02T14:04:57.098Z,99076.81
2019-05-02T14:10:02.692Z,99077.13
2019-05-02T14:15:07.457Z,99063.71
2019-05-02T14:20:13.880Z,99057.95
2019-05-02T14:25:17.454Z,99055.48
2019-05-02T14:30:35.705Z,99051.42
2019-05-02T14:35:29.594Z,99047.35
2019-05-02T14:40:34.242Z,99051.73
2019-05-02T14:45:38.051Z,99036.62
2019-05-02T14:50:45.582Z,99040.42
2019-05-02T14:55:48.599Z,99045.83
2019-05-02T15:00:53.892Z,99046.91
2019-05-02T15:05:59.077Z,99051.55
2019-05-02T15:11:03.444Z,99040.69
2019-05-02T15:16:10.538Z,99065.65
2019-05-02T15:21:22.899Z,99061.79
2019-05-02T15:26:31.169Z,99058.48
2019-05-02T15:31:34.362Z,99029.75
2019-05-02T15:36:44.058Z,99030.73
2019-05-02T15:41:44.808Z,99041.85
2019-05-02T15:46:49.415Z,99045.22
2019-05-02T15:51:53.014Z,99031.52
2019-05-02T15:57:02.857Z,99047.30
2019-05-02T16:02:04.001Z,99038.02
2019-05-02T16:07:08.524Z,99046.66
2019-05-02T16:12:12.442Z,99039.02
2019-05-02T16:17:17.693Z,99031.04
2019-05-02T16:22:22.700Z,99029.59
2019-05-02T16:27:44.538Z,99028.87
2019-05-02T16:32:52.513Z,98997.12
2019-05-02T16:37:56.266Z,99018.10
2019-05-02T16:42:59.870Z,99013.38
2019-05-02T16:48:03.518Z,99024.75
2019-05-02T16:53:07.277Z,99020.42
2019-05-02T16:58:11.852Z,99030.85
2019-05-02T17:03:17.272Z,99037.45
2019-05-02T17:08:41.880Z,99041.59
2019-05-02T17:13:46.476Z,99037.62
2019-05-02T17:18:55.002Z,99035.72
2019-05-02T17:23:55.391Z,99048.30
2019-05-02T17:28:59.008Z,99057.73
2019-05-02T17:34:02.859Z,99056.59
2019-05-02T17:39:08.311Z,99063.44
2019-05-02T17:44:12.972Z,99066.73
2019-05-02T17:49:17.390Z,99071.83
2019-05-02T17:54:22.691Z,99078.13
2019-05-02T17:59:28.307Z,99077.83
2019-05-02T18:04:32.515Z,99071.13
2019-05-02T18:09:36.217Z,99080.05
2019-05-02T18:14:42.104Z,99088.56
2019-05-02T18:19:45.798Z,99088.98
2019-05-02T18:24:49.381Z,99088.71
2019-05-02T18:29:52.964Z,99090.65
2019-05-02T18:35:01.208Z,99098.67
2019-05-02T18:40:03.062Z,99103.55
2019-05-02T18:45:12.912Z,99113.34
2019-05-02T18:50:36.855Z,99118.55
2019-05-02T18:55:42.198Z,99128.39
2019-05-02T19:00:45.970Z,99131.46
2019-05-02T19:05:51.672Z,99135.08
2019-05-02T19:11:05.393Z,99131.19
2019-05-02T19:16:02.016Z,99130.80
2019-05-02T19:21:05.708Z,99127.74
2019-05-02T19:26:10.348Z,99132.59
2019-05-02T19:31:14.594Z,99132.71
2019-05-02T19:36:24.842Z,99132.77
2019-05-02T19:41:23.475Z,99130.20
2019-05-02T19:46:34.690Z,99133.72
2019-05-02T19:51:32.466Z,99136.36
2019-05-02T19:56:45.373Z,99134.18
2019-05-02T20:01:41.344Z,99117.11
2019-05-02T20:06:44.928Z,99128.52
2019-05-02T20:11:48.534Z,99128.59
2019-05-02T20:16:53.301Z,99133.47
2019-05-02T20:22:04.817Z,99139.20
2019-05-02T20:27:03.838Z,99136.15
2019-05-02T20:32:07.435Z,99126.51
2019-05-02T20:37:12.762Z,99134.41
2019-05-02T20:42:16.452Z,99128.72
2019-05-02T20:47:22.535Z,99133.14
2019-05-02T20:52:26.132Z,99135.31
2019-05-02T20:57:31.686Z,99135.77
2019-05-02T21:02:35.051Z,99137.94
2019-05-02T21:07:42.285Z,99130.50
2019-05-02T21:12:45.490Z,99129.60
2019-05-02T21:17:49.087Z,99120.47
2019-05-02T21:22:53.105Z,99132.23
2019-05-02T21:27:56.819Z,99133.10
2019-05-02T21:33:00.415Z,99132.65
2019-05-02T21:38:04.843Z,99140.53
2019-05-02T21:43:08.469Z,99143.12
2019-05-02T21:48:12.259Z,99132.66
2019-05-02T21:53:17.396Z,99123.04
2019-05-02T21:58:21.575Z,99122.16
2019-05-02T22:03:25.341Z,99119.94
2019-05-02T22:08:28.950Z,99112.53
2019-05-02T22:13:32.502Z,99110.31
2019-05-02T22:18:36.134Z,99112.39
2019-05-02T22:23:39.990Z,99112.31
2019-05-02T22:28:43.605Z,99100.99
2019-05-02T22:33:47.434Z,99094.39
2019-05-02T22:39:09.046Z,99109.27
2019-05-02T22:44:12.804Z,99106.23
2019-05-02T22:49:16.669Z,99105.35
2019-05-02T22:54:29.962Z,99105.30
2019-05-02T22:59:25.852Z,99101.37
2019-05-02T23:04:29.403Z,99100.53
2019-05-02T23:09:33.067Z,99105.62
2019-05-02T23:14:36.729Z,99098.64
2019-05-02T23:19:42.194Z,99087.17
2019-05-02T23:24:53.654Z,99095.90
2019-05-02T23:29:57.238Z,99085.84
2019-05-02T23:35:01.917Z,99091.44
2019-05-02T23:40:06.269Z,99083.51
2019-05-02T23:45:11.979Z,99087.03
2019-05-02T23:50:15.689Z,99079.55
2019-05-02T23:55:19.291Z,99080.41
